createdAt,value
2023-04-19T00:00:08.237Z,8.40
2023-04-19T00:02:36.024Z,7.45
2023-04-19T00:05:03.142Z,7.53
2023-04-19T00:07:30.153Z,7.63
2023-04-19T00:09:56.993Z,7.95
2023-04-19T00:12:23.932Z,8.02
2023-04-19T00:14:50.689Z,7.95
2023-04-19T00:17:17.464Z,7.68
2023-04-19T00:19:44.472Z,7.32
2023-04-19T00:22:11.742Z,8.38
2023-04-19T00:24:38.534Z,8.05
2023-04-19T00:27:05.304Z,8.27
2023-04-19T00:29:32.174Z,8.48
2023-04-19T00:31:58.982Z,8.80
2023-04-19T00:34:26.006Z,8.55
2023-04-19T00:36:56.615Z,8.10
2023-04-19T00:39:23.859Z,8.55
2023-04-19T00:41:50.630Z,8.15
2023-04-19T00:44:19.003Z,8.35
2023-04-19T00:46:45.877Z,9.25
2023-04-19T00:49:12.989Z,8.57
2023-04-19T00:51:40.038Z,8.52
2023-04-19T00:54:08.834Z,8.40
2023-04-19T00:56:35.888Z,8.70
2023-04-19T00:59:02.837Z,8.98
2023-04-19T01:01:30.872Z,9.15
2023-04-19T01:03:58.152Z,9.00
2023-04-19T01:06:27.851Z,8.32
2023-04-19T01:08:54.837Z,8.55
2023-04-19T01:11:26.458Z,9.02
2023-04-19T01:13:53.276Z,8.77
2023-04-19T01:16:20.167Z,9.50
2023-04-19T01:18:47.135Z,9.32
2023-04-19T01:21:14.081Z,9.60
2023-04-19T01:23:40.990Z,9.70
2023-04-19T01:26:08.088Z,9.48
2023-04-19T01:28:34.827Z,9.90
2023-04-19T01:31:01.739Z,9.45
2023-04-19T01:33:28.601Z,9.77
2023-04-19T01:35:55.607Z,9.88
2023-04-19T01:38:22.393Z,9.65
2023-04-19T01:40:49.159Z,10.50
2023-04-19T01:43:18.061Z,9.45
2023-04-19T01:45:45.653Z,11.25
2023-04-19T01:48:12.460Z,10.15
2023-04-19T01:50:39.269Z,10.43
2023-04-19T01:53:06.065Z,9.55
2023-04-19T01:55:32.841Z,11.45
2023-04-19T01:57:59.653Z,9.55
2023-04-19T02:00:26.734Z,9.27
2023-04-19T02:02:53.680Z,9.80
2023-04-19T02:05:21.658Z,9.60
2023-04-19T02:07:48.521Z,9.15
2023-04-19T02:10:15.418Z,10.77
2023-04-19T02:12:42.881Z,10.27
2023-04-19T02:15:10.342Z,10.48
2023-04-19T02:17:37.194Z,10.40
2023-04-19T02:20:05.789Z,10.55
2023-04-19T02:22:32.645Z,11.63
2023-04-19T02:24:59.640Z,10.18
2023-04-19T02:27:29.970Z,9.85
2023-04-19T02:29:56.933Z,10.40
2023-04-19T02:32:24.681Z,9.98
2023-04-19T02:34:51.930Z,10.75
2023-04-19T02:37:18.800Z,9.80
2023-04-19T02:39:45.985Z,10.13
2023-04-19T02:42:12.948Z,10.30
2023-04-19T02:44:39.816Z,10.32
2023-04-19T02:47:06.721Z,10.27
2023-04-19T02:49:36.480Z,10.68
2023-04-19T02:52:04.158Z,10.68
2023-04-19T02:54:33.846Z,10.65
2023-04-19T02:57:01.107Z,9.63
2023-04-19T02:59:28.099Z,10.68
2023-04-19T03:01:56.631Z,10.48
2023-04-19T03:04:24.876Z,9.95
2023-04-19T03:06:52.810Z,9.95
2023-04-19T03:09:20.258Z,10.13
2023-04-19T03:11:47.097Z,10.95
2023-04-19T03:14:14.092Z,9.57
2023-04-19T03:16:41.612Z,9.32
2023-04-19T03:19:08.893Z,10.07
2023-04-19T03:21:41.309Z,9.40
2023-04-19T03:24:08.993Z,9.50
2023-04-19T03:26:38.902Z,9.15
2023-04-19T03:29:06.449Z,9.95
2023-04-19T03:31:38.029Z,9.50
2023-04-19T03:34:05.113Z,8.68
2023-04-19T03:36:40.563Z,9.60
2023-04-19T03:39:08.036Z,8.85
2023-04-19T03:41:36.938Z,8.00
2023-04-19T03:44:15.312Z,8.85
2023-04-19T03:46:46.442Z,9.68
2023-04-19T03:49:15.228Z,9.00
2023-04-19T03:51:44.677Z,9.32
2023-04-19T03:54:12.359Z,9.07
2023-04-19T03:56:39.157Z,8.00
2023-04-19T03:59:06.162Z,8.15
2023-04-19T04:01:41.694Z,8.05
2023-04-19T04:04:09.569Z,8.50
2023-04-19T04:06:36.680Z,7.55
2023-04-19T04:09:03.971Z,8.27
2023-04-19T04:11:31.320Z,7.95
2023-04-19T04:13:58.519Z,8.15
2023-04-19T04:16:28.605Z,8.25
2023-04-19T04:18:56.213Z,7.82
2023-04-19T04:21:27.126Z,7.63
2023-04-19T04:23:56.341Z,7.82
2023-04-19T04:26:35.212Z,7.97
2023-04-19T04:29:19.805Z,8.52
2023-04-19T04:31:46.877Z,7.13
2023-04-19T04:34:17.173Z,8.38
2023-04-19T04:36:50.914Z,8.38
2023-04-19T04:39:19.607Z,7.93
2023-04-19T04:41:48.287Z,7.68
2023-04-19T04:44:15.358Z,7.53
2023-04-19T04:46:44.159Z,7.97
2023-04-19T04:49:13.733Z,7.95
2023-04-19T04:51:42.321Z,7.82
2023-04-19T04:54:09.570Z,7.68
2023-04-19T04:56:36.876Z,7.50
2023-04-19T04:59:03.750Z,7.72
2023-04-19T05:01:35.034Z,8.05
2023-04-19T05:04:02.218Z,7.68
2023-04-19T05:06:29.111Z,8.10
2023-04-19T05:08:55.947Z,7.72
2023-04-19T05:11:31.947Z,7.45
2023-04-19T05:13:59.140Z,7.10
2023-04-19T05:16:27.734Z,7.38
2023-04-19T05:18:55.449Z,7.40
2023-04-19T05:21:23.425Z,8.50
2023-04-19T05:23:53.379Z,7.90
2023-04-19T05:26:20.527Z,7.70
2023-04-19T05:28:49.278Z,8.05
2023-04-19T05:31:36.706Z,8.13
2023-04-19T05:34:17.853Z,8.23
2023-04-19T05:36:46.148Z,7.70
2023-04-19T05:39:13.448Z,8.35
2023-04-19T05:41:40.352Z,7.97
2023-04-19T05:44:07.405Z,8.50
2023-04-19T05:46:34.400Z,7.53
2023-04-19T05:49:02.085Z,9.35
2023-04-19T05:51:43.801Z,7.78
2023-04-19T05:54:35.926Z,7.38
2023-04-19T05:57:04.305Z,8.15
2023-04-19T05:59:31.235Z,8.70
2023-04-19T06:01:58.105Z,8.15
2023-04-19T06:04:25.312Z,8.40
2023-04-19T06:06:52.345Z,8.00
2023-04-19T06:09:19.531Z,8.27
2023-04-19T06:11:50.950Z,8.25
2023-04-19T06:14:18.616Z,7.95
2023-04-19T06:16:45.962Z,8.45
2023-04-19T06:19:12.815Z,7.50
2023-04-19T06:21:39.674Z,7.25
2023-04-19T06:24:07.677Z,7.72
2023-04-19T06:26:34.746Z,8.13
2023-04-19T06:29:01.672Z,7.30
2023-04-19T06:31:28.562Z,7.10
2023-04-19T06:33:55.666Z,7.57
2023-04-19T06:36:22.560Z,7.07
2023-04-19T06:38:50.026Z,8.18
2023-04-19T06:41:17.673Z,8.00
2023-04-19T06:43:44.991Z,7.38
2023-04-19T06:46:14.508Z,7.35
2023-04-19T06:48:41.815Z,7.20
2023-04-19T06:51:09.120Z,7.28
2023-04-19T06:53:36.391Z,6.88
2023-04-19T06:56:04.855Z,6.75
2023-04-19T06:58:34.895Z,6.55
2023-04-19T07:01:05.106Z,6.95
2023-04-19T07:03:32.690Z,5.80
2023-04-19T07:05:59.815Z,6.05
2023-04-19T07:08:35.065Z,5.95
2023-04-19T07:11:09.569Z,5.22
2023-04-19T07:13:36.416Z,4.82
2023-04-19T07:16:07.321Z,4.97
2023-04-19T07:18:34.249Z,4.65
2023-04-19T07:21:01.506Z,4.47
2023-04-19T07:23:28.273Z,4.40
2023-04-19T07:25:55.059Z,3.78
2023-04-19T07:28:21.995Z,3.83
2023-04-19T07:30:48.799Z,4.13
2023-04-19T07:33:15.813Z,3.88
2023-04-19T07:35:42.781Z,3.80
2023-04-19T07:38:09.729Z,3.50
2023-04-19T07:40:36.775Z,4.22
2023-04-19T07:43:03.747Z,3.72
2023-04-19T07:45:31.299Z,3.30
2023-04-19T07:47:58.390Z,4.10
2023-04-19T07:50:28.875Z,3.65
2023-04-19T07:52:56.609Z,3.58
2023-04-19T07:55:23.536Z,3.20
2023-04-19T07:57:50.561Z,3.60
2023-04-19T08:00:18.664Z,3.60
2023-04-19T08:02:46.916Z,2.92
2023-04-19T08:05:20.006Z,3.75
2023-04-19T08:07:46.997Z,3.20
2023-04-19T08:10:14.326Z,3.10
2023-04-19T08:12:56.982Z,3.20
2023-04-19T08:16:13.012Z,2.75
2023-04-19T08:18:16.082Z,2.97
2023-04-19T08:20:43.100Z,3.53
2023-04-19T08:23:22.303Z,3.33
2023-04-19T08:25:51.456Z,2.80
2023-04-19T08:28:19.159Z,2.85
2023-04-19T08:30:46.320Z,3.08
2023-04-19T08:33:13.181Z,3.03
2023-04-19T08:35:42.808Z,2.75
2023-04-19T08:38:09.761Z,3.38
2023-04-19T08:40:47.115Z,2.83
2023-04-19T08:43:15.018Z,2.90
2023-04-19T08:45:42.382Z,3.00
2023-04-19T08:48:11.837Z,2.88
2023-04-19T08:50:55.853Z,2.40
2023-04-19T08:53:33.125Z,2.60
2023-04-19T08:56:10.751Z,2.30
2023-04-19T08:59:00.369Z,2.40
2023-04-19T09:01:34.609Z,2.65
2023-04-19T09:04:26.462Z,2.67
2023-04-19T09:06:53.616Z,2.20
2023-04-19T09:11:59.770Z,1.70
2023-04-19T09:14:28.692Z,2.08
2023-04-19T09:17:17.461Z,2.15
2023-04-19T09:19:49.923Z,1.90
2023-04-19T09:22:17.648Z,1.70
2023-04-19T09:27:30.119Z,1.30
2023-04-19T09:30:00.433Z,1.30
2023-04-19T09:32:30.178Z,1.52
2023-04-19T09:35:00.908Z,1.50
2023-04-19T09:37:51.553Z,1.33
2023-04-19T09:40:25.044Z,1.35
2023-04-19T09:45:29.779Z,1.58
2023-04-19T09:48:07.465Z,1.65
2023-04-19T09:50:50.364Z,1.38
2023-04-19T09:53:24.602Z,1.42
2023-04-19T09:56:01.421Z,1.77
2023-04-19T09:58:34.369Z,1.70
2023-04-19T10:01:15.928Z,1.45
2023-04-19T10:03:48.952Z,1.60
2023-04-19T10:08:51.087Z,1.83
2023-04-19T10:11:22.032Z,1.90
2023-04-19T10:13:51.384Z,2.17
2023-04-19T10:16:20.059Z,2.00
2023-04-19T10:18:50.593Z,2.08
2023-04-19T10:21:20.459Z,1.88
2023-04-19T10:23:48.078Z,1.80
2023-04-19T10:26:14.851Z,1.50
2023-04-19T10:28:42.551Z,1.90
2023-04-19T10:31:13.494Z,1.73
2023-04-19T10:33:41.728Z,1.83
2023-04-19T10:36:15.809Z,1.45
2023-04-19T10:38:48.522Z,2.00
2023-04-19T10:41:19.699Z,1.88
2023-04-19T10:43:48.409Z,1.45
2023-04-19T10:46:20.995Z,1.67
2023-04-19T10:48:58.767Z,1.50
2023-04-19T10:51:35.634Z,1.80
2023-04-19T10:54:07.886Z,2.10
2023-04-19T10:56:34.724Z,1.83
2023-04-19T10:59:01.885Z,1.70
2023-04-19T11:01:55.377Z,1.42
2023-04-19T11:04:27.395Z,1.63
2023-04-19T11:07:02.145Z,1.40
2023-04-19T11:09:36.032Z,1.35
2023-04-19T11:12:10.664Z,2.05
2023-04-19T11:14:44.697Z,1.60
2023-04-19T11:17:26.146Z,1.60
2023-04-19T11:19:57.090Z,1.60
2023-04-19T11:22:38.702Z,1.90
2023-04-19T11:25:14.363Z,1.60
2023-04-19T11:27:43.923Z,2.30
2023-04-19T11:30:21.317Z,1.83
2023-04-19T11:32:54.178Z,1.77
2023-04-19T11:35:24.791Z,1.80
2023-04-19T11:37:52.866Z,1.58
2023-04-19T11:40:22.121Z,1.83
2023-04-19T11:43:03.705Z,1.90
2023-04-19T11:45:39.251Z,1.83
2023-04-19T11:48:14.357Z,1.90
2023-04-19T11:50:45.937Z,2.00
2023-04-19T11:53:24.391Z,1.80
2023-04-19T11:55:58.495Z,1.83
2023-04-19T11:58:33.030Z,1.90
2023-04-19T12:01:25.078Z,2.03
2023-04-19T12:03:55.114Z,1.98
2023-04-19T12:06:26.996Z,1.83
2023-04-19T12:08:56.493Z,1.95
2023-04-19T12:11:26.386Z,2.08
2023-04-19T12:14:14.158Z,2.20
2023-04-19T12:16:42.171Z,2.10
2023-04-19T12:19:18.819Z,2.10
2023-04-19T12:21:46.939Z,2.00
2023-04-19T12:24:16.667Z,2.30
2023-04-19T12:26:56.265Z,2.50
2023-04-19T12:29:23.464Z,2.13
2023-04-19T12:31:51.116Z,2.13
2023-04-19T12:34:18.030Z,1.77
2023-04-19T12:36:44.902Z,2.38
2023-04-19T12:39:11.901Z,2.50
2023-04-19T12:41:38.707Z,2.63
2023-04-19T12:44:05.658Z,2.72
2023-04-19T12:46:32.647Z,2.40
2023-04-19T12:48:59.459Z,2.58
2023-04-19T12:51:26.226Z,2.40
2023-04-19T12:53:54.318Z,2.30
2023-04-19T12:56:21.339Z,2.42
2023-04-19T12:58:48.170Z,2.40
2023-04-19T13:01:15.351Z,2.42
2023-04-19T13:03:42.506Z,2.00
2023-04-19T13:06:11.001Z,2.67
2023-04-19T13:08:44.773Z,2.80
2023-04-19T13:11:15.319Z,2.72
2023-04-19T13:13:42.157Z,2.85
2023-04-19T13:16:09.113Z,2.88
2023-04-19T13:18:36.103Z,2.42
2023-04-19T13:21:03.017Z,2.70
2023-04-19T13:23:30.004Z,3.10
2023-04-19T13:25:56.779Z,3.08
2023-04-19T13:28:23.717Z,3.15
2023-04-19T13:30:50.952Z,3.08
2023-04-19T13:33:17.730Z,3.00
2023-04-19T13:35:45.034Z,2.50
2023-04-19T13:38:11.870Z,2.90
2023-04-19T13:40:38.793Z,2.42
2023-04-19T13:43:05.586Z,2.20
2023-04-19T13:45:32.467Z,2.70
2023-04-19T13:47:59.387Z,2.70
2023-04-19T13:50:26.341Z,2.40
2023-04-19T13:52:53.285Z,2.70
2023-04-19T13:55:20.279Z,2.95
2023-04-19T13:57:47.194Z,2.38
2023-04-19T14:00:14.888Z,2.63
2023-04-19T14:02:42.241Z,2.55
2023-04-19T14:05:09.691Z,2.42
2023-04-19T14:07:39.157Z,2.20
2023-04-19T14:10:07.341Z,2.45
2023-04-19T14:12:34.071Z,2.08
2023-04-19T14:15:01.238Z,2.53
2023-04-19T14:17:28.225Z,2.35
2023-04-19T14:19:56.473Z,2.22
2023-04-19T14:22:23.280Z,2.22
2023-04-19T14:24:50.232Z,2.50
2023-04-19T14:27:17.042Z,2.20
2023-04-19T14:29:43.816Z,2.15
2023-04-19T14:34:43.793Z,2.05
2023-04-19T14:37:10.662Z,2.13
2023-04-19T14:39:37.640Z,2.35
2023-04-19T14:42:04.810Z,2.35
2023-04-19T14:44:31.991Z,2.08
2023-04-19T14:46:58.814Z,2.00
2023-04-19T14:49:25.573Z,2.15
2023-04-19T14:51:52.737Z,2.13
2023-04-19T14:54:19.793Z,2.10
2023-04-19T14:56:46.932Z,2.42
2023-04-19T14:59:13.962Z,2.08
2023-04-19T15:01:40.903Z,2.65
2023-04-19T15:04:08.183Z,2.72
2023-04-19T15:06:35.162Z,2.67
2023-04-19T15:09:02.007Z,2.20
2023-04-19T15:11:28.970Z,2.70
2023-04-19T15:13:55.942Z,2.65
2023-04-19T15:16:22.876Z,2.80
2023-04-19T15:18:50.049Z,2.60
2023-04-19T15:21:21.239Z,3.45
2023-04-19T15:23:49.888Z,3.47
2023-04-19T15:26:17.272Z,3.25
2023-04-19T15:28:44.176Z,3.47
2023-04-19T15:31:11.294Z,3.10
2023-04-19T15:33:38.299Z,3.22
2023-04-19T15:36:05.598Z,2.85
2023-04-19T15:38:33.150Z,3.28
2023-04-19T15:41:03.680Z,3.88
2023-04-19T15:43:30.572Z,3.92
2023-04-19T15:45:57.370Z,3.47
2023-04-19T15:48:24.339Z,3.67
2023-04-19T15:50:51.224Z,3.63
2023-04-19T15:53:18.110Z,3.88
2023-04-19T15:55:46.935Z,4.13
2023-04-19T15:58:13.971Z,4.28
2023-04-19T16:00:40.781Z,3.63
2023-04-19T16:03:09.722Z,3.90
2023-04-19T16:05:36.690Z,3.83
2023-04-19T16:08:08.939Z,3.22
2023-04-19T16:10:36.202Z,3.85
2023-04-19T16:13:06.364Z,3.75
2023-04-19T16:15:33.515Z,3.80
2023-04-19T16:18:01.147Z,3.97
2023-04-19T16:20:28.283Z,3.38
2023-04-19T16:22:55.245Z,3.50
2023-04-19T16:25:22.054Z,3.85
2023-04-19T16:27:49.322Z,3.20
2023-04-19T16:30:16.778Z,3.40
2023-04-19T16:32:43.867Z,3.22
2023-04-19T16:35:11.075Z,3.33
2023-04-19T16:37:38.030Z,2.90
2023-04-19T16:40:09.046Z,3.72
2023-04-19T16:42:40.405Z,3.30
2023-04-19T16:45:08.543Z,3.10
2023-04-19T16:47:36.432Z,3.20
2023-04-19T16:50:06.132Z,3.03
2023-04-19T16:52:35.391Z,3.38
2023-04-19T16:55:04.246Z,3.13
2023-04-19T16:57:32.259Z,2.92
2023-04-19T16:59:59.441Z,3.20
2023-04-19T17:02:26.428Z,3.42
2023-04-19T17:04:53.755Z,3.15
2023-04-19T17:07:20.759Z,3.20
2023-04-19T17:09:47.538Z,2.95
2023-04-19T17:12:14.428Z,2.80
2023-04-19T17:14:41.384Z,3.22
2023-04-19T17:17:08.216Z,2.95
2023-04-19T17:19:36.469Z,2.58
2023-04-19T17:22:05.613Z,2.90
2023-04-19T17:24:33.778Z,3.03
2023-04-19T17:27:01.055Z,3.25
2023-04-19T17:29:28.192Z,3.40
2023-04-19T17:31:56.011Z,2.88
2023-04-19T17:34:23.237Z,2.92
2023-04-19T17:36:50.126Z,3.10
2023-04-19T17:39:18.545Z,2.60
2023-04-19T17:41:45.735Z,2.63
2023-04-19T17:44:12.626Z,2.90
2023-04-19T17:46:40.403Z,3.05
2023-04-19T17:49:08.991Z,3.50
2023-04-19T17:51:35.819Z,3.35
2023-04-19T17:54:02.632Z,2.90
2023-04-19T17:56:29.486Z,2.70
2023-04-19T17:58:56.288Z,2.72
2023-04-19T18:01:23.101Z,2.88
2023-04-19T18:03:51.142Z,2.10
2023-04-19T18:06:20.704Z,2.70
2023-04-19T18:08:47.620Z,2.65
2023-04-19T18:11:17.917Z,2.88
2023-04-19T18:13:45.044Z,2.50
2023-04-19T18:16:13.538Z,2.20
2023-04-19T18:18:40.567Z,2.20
2023-04-19T18:21:08.219Z,2.53
2023-04-19T18:23:35.200Z,2.50
2023-04-19T18:26:03.870Z,2.45
2023-04-19T18:28:30.866Z,2.97
2023-04-19T18:30:57.770Z,2.80
2023-04-19T18:33:24.756Z,2.72
2023-04-19T18:35:53.198Z,2.78
2023-04-19T18:38:20.860Z,3.08
2023-04-19T18:40:48.214Z,3.40
2023-04-19T18:43:15.720Z,3.65
2023-04-19T18:45:42.894Z,4.28
2023-04-19T18:48:10.115Z,3.25
2023-04-19T18:50:38.104Z,3.30
2023-04-19T18:53:04.978Z,3.45
2023-04-19T18:55:31.997Z,2.90
2023-04-19T18:58:01.360Z,3.10
2023-04-19T19:00:28.522Z,3.28
2023-04-19T19:02:57.836Z,3.13
2023-04-19T19:05:25.137Z,3.33
2023-04-19T19:07:52.690Z,3.08
2023-04-19T19:10:22.722Z,2.90
2023-04-19T19:13:01.249Z,3.30
2023-04-19T19:15:28.460Z,2.95
2023-04-19T19:17:55.389Z,2.72
2023-04-19T19:20:22.413Z,2.78
2023-04-19T19:22:49.345Z,3.13
2023-04-19T19:25:16.292Z,3.22
2023-04-19T19:28:02.244Z,2.88
2023-04-19T19:30:33.403Z,2.60
2023-04-19T19:33:01.600Z,2.65
2023-04-19T19:35:28.464Z,3.15
2023-04-19T19:37:55.266Z,3.13
2023-04-19T19:40:22.803Z,3.20
2023-04-19T19:42:49.903Z,3.00
2023-04-19T19:45:18.916Z,3.10
2023-04-19T19:47:49.025Z,2.92
2023-04-19T19:52:46.851Z,2.75
2023-04-19T19:55:13.839Z,2.95
2023-04-19T20:00:36.658Z,3.55
2023-04-19T20:02:59.496Z,3.13
2023-04-19T20:05:27.607Z,3.00
2023-04-19T20:08:13.021Z,3.22
2023-04-19T20:10:42.053Z,2.88
2023-04-19T20:13:09.423Z,3.20
2023-04-19T20:15:37.890Z,2.88
2023-04-19T20:18:06.111Z,2.95
2023-04-19T20:20:33.053Z,3.40
2023-04-19T20:22:59.844Z,2.85
2023-04-19T20:25:26.770Z,3.25
2023-04-19T20:27:54.257Z,3.40
2023-04-19T20:30:21.079Z,3.28
2023-04-19T20:32:49.990Z,2.90
2023-04-19T20:35:16.867Z,3.08
2023-04-19T20:37:44.294Z,2.95
2023-04-19T20:40:14.486Z,3.60
2023-04-19T20:42:42.337Z,3.00
2023-04-19T20:45:10.470Z,3.20
2023-04-19T20:47:38.322Z,3.70
2023-04-19T20:50:07.768Z,3.10
2023-04-19T20:52:35.149Z,2.78
2023-04-19T20:55:02.052Z,2.97
2023-04-19T20:57:28.915Z,3.00
2023-04-19T20:59:55.803Z,3.22
2023-04-19T21:02:22.824Z,3.30
2023-04-19T21:04:49.736Z,3.00
2023-04-19T21:07:16.482Z,2.92
2023-04-19T21:09:43.294Z,3.08
2023-04-19T21:12:10.467Z,2.67
2023-04-19T21:14:37.377Z,2.80
2023-04-19T21:17:04.405Z,2.90
2023-04-19T21:19:31.163Z,3.15
2023-04-19T21:21:58.924Z,2.75
2023-04-19T21:24:26.150Z,2.75
2023-04-19T21:26:52.885Z,3.10
2023-04-19T21:29:20.756Z,2.95
2023-04-19T21:31:48.004Z,3.03
2023-04-19T21:34:14.994Z,3.22
2023-04-19T21:36:41.911Z,2.90
2023-04-19T21:39:10.066Z,2.63
2023-04-19T21:41:37.909Z,2.63
2023-04-19T21:44:04.935Z,3.05
2023-04-19T21:46:32.122Z,3.10
2023-04-19T21:48:58.967Z,2.65
2023-04-19T21:51:25.875Z,2.42
2023-04-19T21:53:52.642Z,2.40
2023-04-19T21:56:19.476Z,2.90
2023-04-19T21:58:46.348Z,3.22
2023-04-19T22:01:13.174Z,2.40
2023-04-19T22:03:40.446Z,2.38
2023-04-19T22:06:08.407Z,2.55
2023-04-19T22:08:35.324Z,2.65
2023-04-19T22:11:03.485Z,2.15
2023-04-19T22:13:33.144Z,2.70
2023-04-19T22:16:02.102Z,2.40
2023-04-19T22:18:28.990Z,2.05
2023-04-19T22:20:55.792Z,2.20
2023-04-19T22:23:22.643Z,2.58
2023-04-19T22:25:49.474Z,2.13
2023-04-19T22:28:16.297Z,2.33
2023-04-19T22:30:43.216Z,2.85
2023-04-19T22:33:10.096Z,2.80
2023-04-19T22:35:37.035Z,2.90
2023-04-19T22:38:03.863Z,2.35
2023-04-19T22:40:30.664Z,2.40
2023-04-19T22:42:57.476Z,2.70
2023-04-19T22:45:24.349Z,2.38
2023-04-19T22:47:51.381Z,2.33
2023-04-19T22:50:18.313Z,2.40
2023-04-19T22:52:45.551Z,1.95
2023-04-19T22:55:12.458Z,2.38
2023-04-19T22:57:39.396Z,2.53
2023-04-19T23:00:07.294Z,2.30
2023-04-19T23:02:34.219Z,2.10
2023-04-19T23:05:01.091Z,2.00
2023-04-19T23:07:28.841Z,2.40
2023-04-19T23:09:56.144Z,2.53
2023-04-19T23:12:23.984Z,2.42
2023-04-19T23:14:51.118Z,2.30
2023-04-19T23:17:17.988Z,2.97
2023-04-19T23:19:44.846Z,2.50
2023-04-19T23:22:11.697Z,2.42
2023-04-19T23:24:38.583Z,2.70
2023-04-19T23:27:05.713Z,2.03
2023-04-19T23:29:32.531Z,2.40
2023-04-19T23:32:01.684Z,2.38
2023-04-19T23:34:28.599Z,2.40
2023-04-19T23:36:56.569Z,2.38
2023-04-19T23:39:23.357Z,2.22
2023-04-19T23:41:50.149Z,2.30
2023-04-19T23:44:17.042Z,1.90
2023-04-19T23:46:44.039Z,2.20
2023-04-19T23:49:10.893Z,2.42
2023-04-19T23:51:37.701Z,2.60
2023-04-19T23:54:04.579Z,2.30
2023-04-19T23:56:31.589Z,2.10
2023-04-19T23:58:58.497Z,2.40
